createdAt,value
2022-10-07T00:00:52.928Z,27.8
2022-10-07T00:01:55.652Z,27.8
2022-10-07T00:02:58.414Z,27.8
2022-10-07T00:04:00.606Z,27.8
2022-10-07T00:05:02.879Z,27.7
2022-10-07T00:06:05.332Z,27.9
2022-10-07T00:07:07.805Z,27.7
2022-10-07T00:08:10.256Z,27.9
2022-10-07T00:09:12.464Z,27.9
2022-10-07T00:10:14.653Z,27.9
2022-10-07T00:11:17.119Z,28
2022-10-07T00:12:19.604Z,27.9
2022-10-07T00:13:22.076Z,27.9
2022-10-07T00:14:24.280Z,27.8
2022-10-07T00:15:26.471Z,28
2022-10-07T00:16:28.690Z,28
2022-10-07T00:17:31.539Z,27.8
2022-10-07T00:18:33.449Z,27.9
2022-10-07T00:19:35.921Z,27.9
2022-10-07T00:20:38.429Z,27.9
2022-10-07T00:21:40.620Z,27.8
2022-10-07T00:22:42.807Z,27.8
2022-10-07T00:23:44.735Z,27.8
2022-10-07T00:24:46.911Z,27.8
2022-10-07T00:25:49.104Z,28
2022-10-07T00:26:51.292Z,28
2022-10-07T00:27:53.779Z,28
2022-10-07T00:28:56.241Z,28
2022-10-07T00:29:58.705Z,27.9
2022-10-07T00:31:01.310Z,27.8
2022-10-07T00:32:04.316Z,27.6
2022-10-07T00:33:06.771Z,27.9
2022-10-07T00:34:08.956Z,27.8
2022-10-07T00:35:11.146Z,28
2022-10-07T00:36:15.084Z,28.1
2022-10-07T00:37:17.543Z,28
2022-10-07T00:38:20.029Z,28.2
2022-10-07T00:39:22.499Z,28
2022-10-07T00:40:24.428Z,27.9
2022-10-07T00:41:26.355Z,27.9
2022-10-07T00:42:28.836Z,28
2022-10-07T00:43:31.330Z,28.1
2022-10-07T00:44:33.825Z,28
2022-10-07T00:45:36.323Z,27.8
2022-10-07T00:46:38.969Z,28
2022-10-07T00:47:41.454Z,27.8
2022-10-07T00:48:45.407Z,27.9
2022-10-07T00:49:47.886Z,28.3
2022-10-07T00:50:50.366Z,27.9
2022-10-07T00:51:52.916Z,27.8
2022-10-07T00:52:54.545Z,28.3
2022-10-07T00:53:57.012Z,28
2022-10-07T00:54:59.483Z,28.1
2022-10-07T00:56:01.716Z,28.2
2022-10-07T00:57:03.889Z,27.9
2022-10-07T00:58:05.833Z,27.9
2022-10-07T00:59:07.772Z,28.1
2022-10-07T01:00:10.238Z,28
2022-10-07T01:01:12.496Z,28.1
2022-10-07T01:02:15.391Z,28.2
2022-10-07T01:03:17.266Z,28.1
2022-10-07T01:04:19.740Z,28.1
2022-10-07T01:05:21.947Z,27.9
2022-10-07T01:06:24.147Z,28.1
2022-10-07T01:07:26.698Z,28
2022-10-07T01:08:29.168Z,28
2022-10-07T01:09:31.367Z,27.9
2022-10-07T01:10:33.564Z,28
2022-10-07T01:11:35.753Z,28
2022-10-07T01:12:38.237Z,28.3
2022-10-07T01:13:40.774Z,28
2022-10-07T01:14:42.737Z,28.2
2022-10-07T01:15:45.193Z,28.1
2022-10-07T01:16:47.797Z,28.3
2022-10-07T01:17:50.825Z,28
2022-10-07T01:18:53.005Z,28.3
2022-10-07T01:19:55.473Z,28
2022-10-07T01:20:57.421Z,28
2022-10-07T01:21:59.612Z,28.1
2022-10-07T01:23:02.160Z,28.1
2022-10-07T01:24:04.363Z,28
2022-10-07T01:25:06.834Z,28
2022-10-07T01:26:09.320Z,28.2
2022-10-07T01:27:11.503Z,28.1
2022-10-07T01:28:13.724Z,28.3
2022-10-07T01:29:16.269Z,28.2
2022-10-07T01:30:18.775Z,28
2022-10-07T01:31:21.015Z,28
2022-10-07T01:32:24.046Z,28
2022-10-07T01:33:26.263Z,28
2022-10-07T01:34:28.437Z,28.2
2022-10-07T01:35:30.367Z,28
2022-10-07T01:36:32.564Z,28.1
2022-10-07T01:37:34.770Z,28.1
2022-10-07T01:38:37.556Z,28.2
2022-10-07T01:39:39.463Z,28.2
2022-10-07T01:40:41.928Z,28.2
2022-10-07T01:41:44.402Z,28
2022-10-07T01:42:46.867Z,28.2
2022-10-07T01:43:49.050Z,28.1
2022-10-07T01:44:50.954Z,28.1
2022-10-07T01:45:53.485Z,28.2
2022-10-07T01:46:56.281Z,28.1
2022-10-07T01:47:58.468Z,28.1
2022-10-07T01:49:00.953Z,28
2022-10-07T01:50:03.429Z,28
2022-10-07T01:51:05.629Z,28.1
2022-10-07T01:52:07.541Z,28
2022-10-07T01:53:10.038Z,28.3
2022-10-07T01:54:12.915Z,28.2
2022-10-07T01:55:14.821Z,28.1
2022-10-07T01:56:17.064Z,27.9
2022-10-07T01:57:19.540Z,28
2022-10-07T01:58:22.009Z,28.1
2022-10-07T01:59:24.486Z,28
2022-10-07T02:00:26.957Z,28
2022-10-07T02:01:29.575Z,28.2
2022-10-07T02:02:32.484Z,28
2022-10-07T02:03:34.697Z,28
2022-10-07T02:04:37.494Z,28.1
2022-10-07T02:05:39.974Z,28.3
2022-10-07T02:06:42.140Z,28.2
2022-10-07T02:07:44.968Z,28.2
2022-10-07T02:08:48.503Z,28
2022-10-07T02:09:51.109Z,28.3
2022-10-07T02:10:53.302Z,28.1
2022-10-07T02:11:55.502Z,28.2
2022-10-07T02:12:57.975Z,28.2
2022-10-07T02:14:00.453Z,28.1
2022-10-07T02:15:02.678Z,28.2
2022-10-07T02:16:04.932Z,28.1
2022-10-07T02:17:11.104Z,28.2
2022-10-07T02:18:13.586Z,28.1
2022-10-07T02:19:15.785Z,28.1
2022-10-07T02:20:18.266Z,28.1
2022-10-07T02:21:20.443Z,28.2
2022-10-07T02:22:22.911Z,28.1
2022-10-07T02:23:25.384Z,28.2
2022-10-07T02:24:27.863Z,28.1
2022-10-07T02:25:30.419Z,28.2
2022-10-07T02:26:32.894Z,28.2
2022-10-07T02:27:35.363Z,28.3
2022-10-07T02:28:37.579Z,28.2
2022-10-07T02:29:40.360Z,28.2
2022-10-07T02:30:42.604Z,28.3
2022-10-07T02:31:45.314Z,28.1
2022-10-07T02:32:47.843Z,28.4
2022-10-07T02:33:50.051Z,28
2022-10-07T02:34:52.520Z,28.3
2022-10-07T02:35:54.445Z,28.4
2022-10-07T02:36:56.346Z,28.1
2022-10-07T02:37:58.825Z,28.1
2022-10-07T02:39:01.036Z,28.2
2022-10-07T02:40:02.964Z,28
2022-10-07T02:41:08.444Z,28.1
2022-10-07T02:42:11.007Z,28.2
2022-10-07T02:43:13.479Z,28.2
2022-10-07T02:44:15.427Z,28.1
2022-10-07T02:45:17.936Z,28.1
2022-10-07T02:46:23.473Z,28.1
2022-10-07T02:47:26.506Z,28.1
2022-10-07T02:48:28.447Z,28.3
2022-10-07T02:49:30.949Z,28.2
2022-10-07T02:50:33.419Z,28.3
2022-10-07T02:51:35.614Z,28.2
2022-10-07T02:52:38.089Z,28.2
2022-10-07T02:53:40.267Z,28.3
2022-10-07T02:54:42.734Z,28.1
2022-10-07T02:55:44.638Z,28.1
2022-10-07T02:56:47.133Z,28.3
2022-10-07T02:57:49.659Z,28.4
2022-10-07T02:58:52.127Z,28.1
2022-10-07T02:59:54.593Z,28.1
2022-10-07T03:00:57.072Z,28.3
2022-10-07T03:01:59.589Z,28.4
2022-10-07T03:03:02.456Z,28.3
2022-10-07T03:04:04.696Z,28.3
2022-10-07T03:05:07.611Z,28.2
2022-10-07T03:06:09.805Z,28.2
2022-10-07T03:07:12.282Z,28
2022-10-07T03:08:14.478Z,28
2022-10-07T03:09:17.374Z,28.2
2022-10-07T03:10:19.841Z,27.9
2022-10-07T03:11:22.048Z,27.8
2022-10-07T03:12:24.254Z,27.9
2022-10-07T03:13:26.500Z,27.9
2022-10-07T03:14:28.977Z,27.9
2022-10-07T03:15:30.915Z,28
2022-10-07T03:16:33.679Z,28
2022-10-07T03:17:36.279Z,27.9
2022-10-07T03:18:38.745Z,27.8
2022-10-07T03:19:40.965Z,27.9
2022-10-07T03:20:43.434Z,28
2022-10-07T03:21:45.631Z,27.7
2022-10-07T03:22:47.837Z,27.8
2022-10-07T03:23:50.312Z,27.6
2022-10-07T03:24:52.782Z,27.8
2022-10-07T03:25:54.960Z,27.6
2022-10-07T03:26:57.427Z,27.6
2022-10-07T03:27:59.716Z,27.6
2022-10-07T03:29:02.547Z,27.6
2022-10-07T03:30:05.013Z,27.4
2022-10-07T03:31:07.264Z,27.7
2022-10-07T03:32:10.168Z,27.7
2022-10-07T03:33:12.373Z,27.6
2022-10-07T03:34:14.890Z,27.6
2022-10-07T03:35:17.393Z,27.5
2022-10-07T03:36:19.888Z,27.5
2022-10-07T03:37:22.380Z,27.6
2022-10-07T03:38:24.876Z,27.7
2022-10-07T03:39:27.072Z,27.5
2022-10-07T03:40:29.542Z,27.4
2022-10-07T03:41:31.443Z,27.5
2022-10-07T03:42:34.096Z,27.6
2022-10-07T03:43:36.753Z,27.6
2022-10-07T03:44:39.415Z,27.4
2022-10-07T03:45:41.919Z,27.4
2022-10-07T03:46:44.463Z,27.4
2022-10-07T03:47:47.555Z,27.4
2022-10-07T03:48:49.768Z,27.4
2022-10-07T03:49:52.276Z,27.5
2022-10-07T03:50:54.526Z,27.5
2022-10-07T03:51:56.989Z,27.5
2022-10-07T03:52:59.165Z,27.5
2022-10-07T03:54:01.362Z,27.5
2022-10-07T03:55:03.552Z,27.6
2022-10-07T03:56:06.027Z,27.4
2022-10-07T03:57:08.209Z,27.3
2022-10-07T03:58:10.680Z,27.4
2022-10-07T03:59:12.891Z,27.4
2022-10-07T04:00:15.509Z,27.6
2022-10-07T04:01:17.806Z,27.4
2022-10-07T04:02:20.583Z,27.6
2022-10-07T04:03:22.595Z,27.3
2022-10-07T04:04:25.262Z,27.3
2022-10-07T04:05:27.740Z,27.6
2022-10-07T04:06:30.248Z,27.4
2022-10-07T04:07:32.730Z,27.3
2022-10-07T04:08:35.203Z,27.2
2022-10-07T04:09:37.671Z,27.2
2022-10-07T04:10:40.157Z,27.3
2022-10-07T04:11:42.623Z,27.4
2022-10-07T04:12:44.793Z,27.4
2022-10-07T04:13:46.978Z,27.4
2022-10-07T04:14:49.468Z,27.4
2022-10-07T04:15:51.802Z,27.2
2022-10-07T04:16:54.084Z,27.2
2022-10-07T04:17:56.011Z,27.4
2022-10-07T04:18:58.489Z,27.3
2022-10-07T04:20:00.685Z,27.5
2022-10-07T04:21:02.856Z,27.3
2022-10-07T04:22:08.765Z,27.5
2022-10-07T04:23:10.038Z,27.3
2022-10-07T04:24:12.229Z,27.2
2022-10-07T04:25:14.702Z,27.3
2022-10-07T04:26:17.209Z,27.3
2022-10-07T04:27:34.165Z,27.4
2022-10-07T04:28:24.589Z,27.4
2022-10-07T04:29:27.471Z,27.2
2022-10-07T04:30:29.757Z,27.4
2022-10-07T04:31:32.252Z,27.3
2022-10-07T04:32:34.697Z,27.4
2022-10-07T04:33:37.190Z,27.5
2022-10-07T04:34:39.675Z,27.3
2022-10-07T04:35:41.580Z,27.3
2022-10-07T04:36:43.784Z,27.3
2022-10-07T04:37:46.581Z,27.3
2022-10-07T04:38:49.790Z,27.2
2022-10-07T04:40:00.518Z,27.2
2022-10-07T04:40:57.001Z,27.3
2022-10-07T04:41:58.915Z,27.1
2022-10-07T04:43:01.114Z,27.2
2022-10-07T04:44:03.285Z,27.3
2022-10-07T04:45:05.459Z,27.1
2022-10-07T04:46:07.654Z,27.3
2022-10-07T04:47:10.327Z,27.2
2022-10-07T04:48:12.983Z,27.4
2022-10-07T04:49:14.907Z,27.4
2022-10-07T04:50:17.388Z,27.2
2022-10-07T04:51:19.307Z,27.2
2022-10-07T04:52:21.772Z,27.2
2022-10-07T04:53:24.277Z,27.3
2022-10-07T04:54:26.742Z,27
2022-10-07T04:55:29.219Z,27.2
2022-10-07T04:56:31.138Z,27.2
2022-10-07T04:57:33.363Z,27.2
2022-10-07T04:58:35.305Z,27.1
2022-10-07T04:59:41.906Z,27.3
2022-10-07T05:00:42.504Z,27.1
2022-10-07T05:01:44.794Z,27.1
2022-10-07T05:02:47.620Z,27.4
2022-10-07T05:03:50.087Z,27.2
2022-10-07T05:04:52.006Z,27.1
2022-10-07T05:05:54.468Z,27.1
2022-10-07T05:06:56.972Z,27
2022-10-07T05:07:59.177Z,27.3
2022-10-07T05:09:01.672Z,27.3
2022-10-07T05:10:04.141Z,27.2
2022-10-07T05:11:06.623Z,27.1
2022-10-07T05:12:08.817Z,27.1
2022-10-07T05:13:11.293Z,27.3
2022-10-07T05:14:13.762Z,27.3
2022-10-07T05:15:16.246Z,27.2
2022-10-07T05:16:18.470Z,27.3
2022-10-07T05:17:21.319Z,27.3
2022-10-07T05:18:23.963Z,27.2
2022-10-07T05:19:26.435Z,27.2
2022-10-07T05:20:28.345Z,27.4
2022-10-07T05:21:30.550Z,27.2
2022-10-07T05:22:32.745Z,27.4
2022-10-07T05:23:35.232Z,26.9
2022-10-07T05:24:37.462Z,27.2
2022-10-07T05:25:39.928Z,27.3
2022-10-07T05:26:42.121Z,27.3
2022-10-07T05:27:44.350Z,27.4
2022-10-07T05:28:48.703Z,27.3
2022-10-07T05:29:51.173Z,27.2
2022-10-07T05:30:53.106Z,27
2022-10-07T05:31:55.357Z,27.1
2022-10-07T05:33:00.871Z,27.3
2022-10-07T05:34:03.397Z,27.2
2022-10-07T05:35:05.313Z,27.2
2022-10-07T05:36:07.520Z,27.1
2022-10-07T05:37:09.754Z,27.2
2022-10-07T05:38:11.954Z,27.4
2022-10-07T05:39:14.143Z,27.4
2022-10-07T05:40:16.370Z,27.3
2022-10-07T05:41:19.080Z,27.2
2022-10-07T05:42:21.255Z,27.3
2022-10-07T05:43:23.479Z,27.4
2022-10-07T05:44:25.424Z,27.2
2022-10-07T05:45:27.700Z,27.2
2022-10-07T05:46:29.978Z,27.3
2022-10-07T05:47:31.897Z,27
2022-10-07T05:48:38.646Z,27.2
2022-10-07T05:49:39.392Z,27.2
2022-10-07T05:50:41.928Z,27.3
2022-10-07T05:51:43.912Z,27.1
2022-10-07T05:52:46.393Z,27.2
2022-10-07T05:53:48.324Z,27.2
2022-10-07T05:54:50.802Z,27.2
2022-10-07T05:55:52.478Z,27.1
2022-10-07T05:56:54.693Z,27.2
2022-10-07T05:57:56.892Z,27
2022-10-07T05:58:58.815Z,27
2022-10-07T06:00:00.723Z,27.1
2022-10-07T06:01:06.116Z,27.1
2022-10-07T06:02:07.672Z,27.1
2022-10-07T06:03:10.791Z,27.2
2022-10-07T06:04:13.979Z,27.4
2022-10-07T06:05:16.180Z,27
2022-10-07T06:06:18.706Z,27.2
2022-10-07T06:07:22.070Z,27.2
2022-10-07T06:08:25.329Z,27.3
2022-10-07T06:09:27.827Z,27.2
2022-10-07T06:10:30.304Z,27.3
2022-10-07T06:11:32.814Z,27
2022-10-07T06:12:35.013Z,27.2
2022-10-07T06:13:36.913Z,27
2022-10-07T06:14:39.112Z,27
2022-10-07T06:15:41.318Z,27.2
2022-10-07T06:16:43.575Z,27.2
2022-10-07T06:17:46.522Z,27.2
2022-10-07T06:18:50.793Z,27.3
2022-10-07T06:19:53.048Z,27.1
2022-10-07T06:20:54.947Z,27.2
2022-10-07T06:21:57.219Z,27.3
2022-10-07T06:22:59.418Z,27
2022-10-07T06:24:01.887Z,27.2
2022-10-07T06:25:04.377Z,27
2022-10-07T06:26:06.299Z,27.1
2022-10-07T06:27:08.526Z,27.2
2022-10-07T06:28:11.043Z,27.2
2022-10-07T06:29:13.682Z,27.2
2022-10-07T06:30:16.156Z,27.1
2022-10-07T06:31:18.669Z,27.1
2022-10-07T06:32:21.332Z,27.3
2022-10-07T06:33:23.256Z,27.2
2022-10-07T06:34:25.732Z,27
2022-10-07T06:35:28.240Z,27
2022-10-07T06:36:30.432Z,27.1
2022-10-07T06:37:33.006Z,27.2
2022-10-07T06:38:35.482Z,27.2
2022-10-07T06:39:37.663Z,27.1
2022-10-07T06:40:39.588Z,26.9
2022-10-07T06:41:41.804Z,27.1
2022-10-07T06:42:43.780Z,27
2022-10-07T06:43:46.268Z,27.1
2022-10-07T06:44:48.195Z,27.2
2022-10-07T06:45:50.729Z,27.2
2022-10-07T06:46:52.899Z,27.1
2022-10-07T06:47:55.106Z,27.1
2022-10-07T06:48:57.003Z,27.2
2022-10-07T06:49:59.209Z,27
2022-10-07T06:51:01.706Z,27.1
2022-10-07T06:52:03.637Z,27.2
2022-10-07T06:53:06.172Z,27
2022-10-07T06:54:08.405Z,27
2022-10-07T06:55:10.900Z,27.1
2022-10-07T06:56:13.381Z,27
2022-10-07T06:57:40.788Z,27.1
2022-10-07T06:58:19.751Z,27.1
2022-10-07T06:59:22.626Z,27.1
2022-10-07T07:00:24.834Z,27.2
2022-10-07T07:01:27.418Z,27.2
2022-10-07T07:02:30.074Z,27
2022-10-07T07:03:32.606Z,27.2
2022-10-07T07:04:34.811Z,27.1
2022-10-07T07:05:39.094Z,26.9
2022-10-07T07:06:41.984Z,27
2022-10-07T07:07:44.458Z,27.1
2022-10-07T07:08:49.355Z,27.2
2022-10-07T07:09:51.873Z,27.2
2022-10-07T07:10:53.794Z,27.2
2022-10-07T07:11:56.515Z,27
2022-10-07T07:12:58.417Z,27
2022-10-07T07:14:00.864Z,27.3
2022-10-07T07:15:03.080Z,27.2
2022-10-07T07:16:05.615Z,27
2022-10-07T07:17:07.898Z,27.2
2022-10-07T07:18:10.616Z,27.1
2022-10-07T07:19:12.821Z,27.1
2022-10-07T07:20:15.028Z,27.1
2022-10-07T07:21:17.247Z,27.1
2022-10-07T07:22:19.744Z,27.1
2022-10-07T07:23:21.970Z,27
2022-10-07T07:24:24.637Z,27.1
2022-10-07T07:25:26.541Z,27.2
2022-10-07T07:26:29.023Z,27.1
2022-10-07T07:27:31.255Z,27.2
2022-10-07T07:28:34.227Z,27.2
2022-10-07T07:29:37.031Z,27
2022-10-07T07:30:39.058Z,27.2
2022-10-07T07:31:41.946Z,27.1
2022-10-07T07:32:44.157Z,27.3
2022-10-07T07:33:46.652Z,26.9
2022-10-07T07:34:49.180Z,27
2022-10-07T07:35:51.839Z,27.2
2022-10-07T07:36:54.309Z,27.2
2022-10-07T07:37:56.513Z,27.1
2022-10-07T07:38:58.778Z,27
2022-10-07T07:40:01.088Z,27.2
2022-10-07T07:41:03.274Z,27.1
2022-10-07T07:42:05.194Z,27.1
2022-10-07T07:43:07.127Z,27.1
2022-10-07T07:44:09.303Z,27.2
2022-10-07T07:45:11.272Z,27.3
2022-10-07T07:46:13.521Z,27.2
2022-10-07T07:47:15.658Z,27.2
2022-10-07T07:48:18.218Z,26.9
2022-10-07T07:49:20.713Z,27
2022-10-07T07:50:22.925Z,27.1
2022-10-07T07:51:25.385Z,27.1
2022-10-07T07:52:27.588Z,27.3
2022-10-07T07:53:29.780Z,27
2022-10-07T07:54:31.730Z,27.1
2022-10-07T07:55:34.349Z,27.1
2022-10-07T07:56:36.566Z,26.8
2022-10-07T07:57:38.497Z,27.1
2022-10-07T07:58:40.971Z,27
2022-10-07T07:59:42.917Z,26.6
2022-10-07T08:00:45.427Z,27
2022-10-07T08:01:47.329Z,27.1
2022-10-07T08:02:48.999Z,26.8
2022-10-07T08:03:51.495Z,27
2022-10-07T08:04:53.703Z,27
2022-10-07T08:05:55.706Z,27.1
2022-10-07T08:06:57.631Z,27.2
2022-10-07T08:07:59.563Z,26.9
2022-10-07T08:09:02.054Z,27
2022-10-07T08:10:04.563Z,27
2022-10-07T08:11:07.198Z,27.2
2022-10-07T08:12:09.683Z,27.1
2022-10-07T08:13:11.892Z,27.2
2022-10-07T08:14:14.108Z,27.2
2022-10-07T08:15:16.595Z,27.1
2022-10-07T08:16:19.103Z,27.1
2022-10-07T08:17:21.314Z,27
2022-10-07T08:18:23.255Z,27.1
2022-10-07T08:19:25.204Z,27.2
2022-10-07T08:20:27.112Z,27.1
2022-10-07T08:21:29.598Z,27.1
2022-10-07T08:22:32.108Z,27
2022-10-07T08:23:33.771Z,27.2
2022-10-07T08:24:35.991Z,27.1
2022-10-07T08:25:38.501Z,27.1
2022-10-07T08:26:40.768Z,27.1
2022-10-07T08:27:43.302Z,27.1
2022-10-07T08:28:47.475Z,27.2
2022-10-07T08:29:49.956Z,27.2
2022-10-07T08:30:52.214Z,27.2
2022-10-07T08:31:54.836Z,27.1
2022-10-07T08:33:01.104Z,27
2022-10-07T08:34:02.313Z,27.1
2022-10-07T08:35:04.517Z,27.1
2022-10-07T08:36:06.432Z,27.1
2022-10-07T08:37:08.554Z,27.1
2022-10-07T08:38:14.347Z,27.2
2022-10-07T08:39:16.049Z,27
2022-10-07T08:40:18.007Z,27.2
2022-10-07T08:41:20.236Z,27.2
2022-10-07T08:42:22.816Z,27.2
2022-10-07T08:43:25.470Z,27.1
2022-10-07T08:44:27.135Z,27.2
2022-10-07T08:45:29.624Z,27.1
2022-10-07T08:46:31.603Z,27.2
2022-10-07T08:47:34.431Z,27.1
2022-10-07T08:48:36.638Z,27.1
2022-10-07T08:49:38.575Z,27.2
2022-10-07T08:50:40.520Z,27.2
2022-10-07T08:51:42.489Z,27.1
2022-10-07T08:52:44.395Z,27
2022-10-07T08:53:46.899Z,27.1
2022-10-07T08:54:49.393Z,27
2022-10-07T08:55:51.886Z,27.2
2022-10-07T08:56:54.126Z,27.1
2022-10-07T08:57:56.383Z,27.1
2022-10-07T08:58:58.856Z,27.1
2022-10-07T09:00:01.065Z,27.2
2022-10-07T09:01:02.980Z,27.1
2022-10-07T09:02:05.446Z,27
2022-10-07T09:03:07.368Z,27.1
2022-10-07T09:04:09.559Z,27.2
2022-10-07T09:05:12.082Z,27.2
2022-10-07T09:06:14.369Z,27.1
2022-10-07T09:07:16.579Z,27.3
2022-10-07T09:08:18.529Z,27.2
2022-10-07T09:09:20.736Z,27.4
2022-10-07T09:10:22.644Z,27.1
2022-10-07T09:11:25.129Z,27.1
2022-10-07T09:12:27.387Z,27.2
2022-10-07T09:13:29.924Z,27.1
2022-10-07T09:14:32.115Z,27.2
2022-10-07T09:15:34.628Z,27.3
2022-10-07T09:16:36.902Z,27.2
2022-10-07T09:17:38.537Z,27.1
2022-10-07T09:18:40.879Z,27.1
2022-10-07T09:19:42.821Z,27.1
2022-10-07T09:20:45.031Z,27.2
2022-10-07T09:21:47.523Z,27.1
2022-10-07T09:22:50.002Z,27.3
2022-10-07T09:23:52.204Z,27.3
2022-10-07T09:24:54.760Z,27.2
2022-10-07T09:25:58.305Z,27.2
2022-10-07T09:27:00.778Z,27.1
2022-10-07T09:28:03.329Z,27.2
2022-10-07T09:29:06.268Z,27.2
2022-10-07T09:30:08.227Z,27.2
2022-10-07T09:31:10.197Z,27
2022-10-07T09:32:12.823Z,27
2022-10-07T09:33:15.016Z,27.2
2022-10-07T09:34:17.418Z,27
2022-10-07T09:35:19.883Z,27.3
2022-10-07T09:36:22.098Z,27.1
2022-10-07T09:37:24.585Z,27.2
2022-10-07T09:38:26.815Z,27
2022-10-07T09:39:29.350Z,27.2
2022-10-07T09:40:31.910Z,27.2
2022-10-07T09:41:34.088Z,27
2022-10-07T09:42:36.300Z,27.1
2022-10-07T09:43:38.790Z,27.1
2022-10-07T09:44:41.410Z,27.2
2022-10-07T09:45:43.892Z,27.3
2022-10-07T09:46:46.152Z,27.1
2022-10-07T09:47:49.195Z,27
2022-10-07T09:48:51.683Z,27.1
2022-10-07T09:49:54.184Z,27.1
2022-10-07T09:50:56.670Z,27
2022-10-07T09:51:59.141Z,27.3
2022-10-07T09:53:01.350Z,27.2
2022-10-07T09:54:03.553Z,27.2
2022-10-07T09:55:05.753Z,27.1
2022-10-07T09:56:08.251Z,27.1
2022-10-07T09:57:11.520Z,27.2
2022-10-07T09:58:18.209Z,27.2
2022-10-07T09:59:20.753Z,27.1
2022-10-07T10:00:23.278Z,27.2
2022-10-07T10:01:25.793Z,27.3
2022-10-07T10:02:28.109Z,27.1
2022-10-07T10:03:31.174Z,27.2
2022-10-07T10:04:34.556Z,27.1
2022-10-07T10:05:37.071Z,27.1
2022-10-07T10:06:39.558Z,27.1
2022-10-07T10:07:41.191Z,27.1
2022-10-07T10:08:44.190Z,27.2
2022-10-07T10:09:46.662Z,27
2022-10-07T10:10:49.186Z,27.1
2022-10-07T10:11:51.712Z,27.2
2022-10-07T10:12:54.100Z,27.1
2022-10-07T10:13:56.295Z,27
2022-10-07T10:14:58.930Z,27.3
2022-10-07T10:16:01.542Z,27.1
2022-10-07T10:17:04.596Z,27.3
2022-10-07T10:18:06.887Z,27.3
2022-10-07T10:19:09.130Z,27
2022-10-07T10:20:11.665Z,27.1
2022-10-07T10:21:13.931Z,27.2
2022-10-07T10:22:16.393Z,27.2
2022-10-07T10:23:18.871Z,27.2
2022-10-07T10:24:21.345Z,27.4
2022-10-07T10:25:23.822Z,27.3
2022-10-07T10:26:29.518Z,27.2
2022-10-07T10:27:31.111Z,27
2022-10-07T10:28:33.341Z,27
2022-10-07T10:29:36.038Z,27.2
2022-10-07T10:30:38.540Z,27
2022-10-07T10:31:41.278Z,27.1
2022-10-07T10:32:44.304Z,27.1
2022-10-07T10:33:48.395Z,27.3
2022-10-07T10:34:50.580Z,27
2022-10-07T10:35:52.787Z,27.4
2022-10-07T10:36:55.157Z,27.2
2022-10-07T10:37:57.629Z,27
2022-10-07T10:38:59.824Z,27.1
2022-10-07T10:40:02.295Z,27.2
2022-10-07T10:41:04.528Z,27.2
2022-10-07T10:42:06.738Z,27.2
2022-10-07T10:43:08.645Z,27.2
2022-10-07T10:44:11.135Z,27.2
2022-10-07T10:45:13.609Z,27.1
2022-10-07T10:46:16.279Z,27.1
2022-10-07T10:47:19.146Z,27.1
2022-10-07T10:48:21.367Z,27.1
2022-10-07T10:49:23.849Z,27
2022-10-07T10:50:26.333Z,27.1
2022-10-07T10:51:28.810Z,27.1
2022-10-07T10:52:31.321Z,27.2
2022-10-07T10:53:33.798Z,27
2022-10-07T10:54:36.303Z,27.2
2022-10-07T10:55:38.499Z,27.3
2022-10-07T10:56:40.688Z,27.2
2022-10-07T10:57:42.607Z,27.1
2022-10-07T10:58:44.527Z,27.2
2022-10-07T10:59:46.728Z,27.1
2022-10-07T11:00:49.270Z,27.2
2022-10-07T11:01:51.898Z,27.2
2022-10-07T11:02:54.900Z,27.1
2022-10-07T11:03:57.069Z,27.1
2022-10-07T11:04:59.014Z,27.2
2022-10-07T11:06:01.235Z,27.1
2022-10-07T11:07:03.764Z,27
2022-10-07T11:08:05.983Z,27.1
2022-10-07T11:09:08.194Z,26.9
2022-10-07T11:10:10.676Z,27.1
2022-10-07T11:11:12.865Z,27
2022-10-07T11:12:14.779Z,27
2022-10-07T11:13:17.525Z,27.2
2022-10-07T11:14:19.861Z,27.1
2022-10-07T11:15:21.214Z,26.9
2022-10-07T11:16:23.708Z,27.3
2022-10-07T11:17:25.963Z,27
2022-10-07T11:18:28.274Z,27
2022-10-07T11:19:30.772Z,27.2
2022-10-07T11:20:33.104Z,27.1
2022-10-07T11:21:35.302Z,27.1
2022-10-07T11:22:37.777Z,27.1
2022-10-07T11:23:40.028Z,27.2
2022-10-07T11:24:41.933Z,27.2
2022-10-07T11:25:44.408Z,27
2022-10-07T11:26:46.620Z,27.1
2022-10-07T11:27:49.100Z,27.1
2022-10-07T11:28:51.019Z,27.3
2022-10-07T11:29:53.232Z,27.2
2022-10-07T11:30:55.729Z,27.2
2022-10-07T11:31:58.231Z,27.1
2022-10-07T11:33:00.720Z,27
2022-10-07T11:34:03.272Z,27.2
2022-10-07T11:35:05.752Z,27.1
2022-10-07T11:36:07.947Z,27.1
2022-10-07T11:37:10.148Z,27.1
2022-10-07T11:38:12.315Z,27.1
2022-10-07T11:39:14.636Z,27.1
2022-10-07T11:40:17.145Z,27.1
2022-10-07T11:41:19.387Z,27.2
2022-10-07T11:42:21.876Z,27.3
2022-10-07T11:43:24.019Z,27.1
2022-10-07T11:44:26.215Z,27.1
2022-10-07T11:45:28.701Z,27.2
2022-10-07T11:46:30.956Z,27.2
2022-10-07T11:47:33.738Z,27.1
2022-10-07T11:48:36.232Z,27.4
2022-10-07T11:49:38.815Z,27.2
2022-10-07T11:50:40.718Z,27.2
2022-10-07T11:51:42.948Z,27.1
2022-10-07T11:52:45.495Z,27.1
2022-10-07T11:53:49.149Z,27.1
2022-10-07T11:54:51.379Z,27.2
2022-10-07T11:55:55.265Z,27
2022-10-07T11:56:57.600Z,27.2
2022-10-07T11:57:59.528Z,27.3
2022-10-07T11:59:01.729Z,27.2
2022-10-07T12:00:03.942Z,27.1
2022-10-07T12:01:05.997Z,27
2022-10-07T12:02:08.537Z,27.1
2022-10-07T12:03:14.912Z,27.2
2022-10-07T12:04:17.194Z,27.2
2022-10-07T12:05:19.454Z,27.2
2022-10-07T12:06:21.683Z,27
2022-10-07T12:07:24.178Z,27.1
2022-10-07T12:08:26.671Z,27.3
2022-10-07T12:09:28.884Z,27.2
2022-10-07T12:10:31.182Z,27.2
2022-10-07T12:11:33.731Z,27.1
2022-10-07T12:12:35.922Z,27.1
2022-10-07T12:13:38.422Z,27.2
2022-10-07T12:14:40.951Z,27.2
2022-10-07T12:15:43.285Z,27.2
2022-10-07T12:16:45.803Z,27.1
2022-10-07T12:17:47.815Z,27.4
2022-10-07T12:18:50.017Z,27.2
2022-10-07T12:19:52.520Z,27.1
2022-10-07T12:20:55.096Z,27.2
2022-10-07T12:21:57.621Z,27.2
2022-10-07T12:23:00.286Z,27.2
2022-10-07T12:24:02.236Z,27.2
2022-10-07T12:25:07.847Z,27.2
2022-10-07T12:26:09.722Z,27
2022-10-07T12:27:12.198Z,27.2
2022-10-07T12:28:14.695Z,27.2
2022-10-07T12:29:17.051Z,27.3
2022-10-07T12:30:19.258Z,27.1
2022-10-07T12:31:21.808Z,27.2
2022-10-07T12:32:24.793Z,27.1
2022-10-07T12:33:27.268Z,27.1
2022-10-07T12:34:29.196Z,27.3
2022-10-07T12:35:31.455Z,27.2
2022-10-07T12:36:33.735Z,27.2
2022-10-07T12:37:35.938Z,27.1
2022-10-07T12:38:37.922Z,27.1
2022-10-07T12:39:40.136Z,27.2
2022-10-07T12:40:42.629Z,27.1
2022-10-07T12:41:44.885Z,27.2
2022-10-07T12:42:47.413Z,27.3
2022-10-07T12:43:50.269Z,27
2022-10-07T12:44:52.782Z,27.1
2022-10-07T12:45:54.773Z,27.3
2022-10-07T12:46:57.684Z,27.1
2022-10-07T12:48:00.171Z,27.1
2022-10-07T12:49:02.699Z,27.2
2022-10-07T12:50:04.637Z,27.1
2022-10-07T12:51:06.889Z,27.3
2022-10-07T12:52:09.212Z,27
2022-10-07T12:53:11.428Z,27.2
2022-10-07T12:54:13.616Z,27.1
2022-10-07T12:55:15.814Z,27.3
2022-10-07T12:56:18.040Z,27.2
2022-10-07T12:57:20.302Z,27.2
2022-10-07T12:58:22.781Z,27
2022-10-07T12:59:24.983Z,27
2022-10-07T13:00:26.910Z,27.1
2022-10-07T13:01:29.234Z,27
2022-10-07T13:02:32.569Z,27.1
2022-10-07T13:03:33.996Z,27.1
2022-10-07T13:04:36.199Z,27
2022-10-07T13:05:38.695Z,27.1
2022-10-07T13:06:41.007Z,27.1
2022-10-07T13:07:43.638Z,27.1
2022-10-07T13:08:45.844Z,27.2
2022-10-07T13:09:48.365Z,27
2022-10-07T13:10:50.599Z,27.2
2022-10-07T13:11:52.809Z,27.2
2022-10-07T13:12:55.044Z,26.9
2022-10-07T13:13:57.516Z,27
2022-10-07T13:15:00.009Z,27.2
2022-10-07T13:16:02.520Z,27.2
2022-10-07T13:17:05.369Z,27.1
2022-10-07T13:18:10.768Z,27.1
2022-10-07T13:19:12.844Z,27.1
2022-10-07T13:20:15.336Z,27.1
2022-10-07T13:21:17.281Z,27.2
2022-10-07T13:22:18.937Z,27.3
2022-10-07T13:23:26.174Z,27
2022-10-07T13:24:26.270Z,26.9
2022-10-07T13:25:28.496Z,27
2022-10-07T13:26:30.987Z,26.9
2022-10-07T13:27:33.188Z,27.2
2022-10-07T13:28:35.465Z,27.1
2022-10-07T13:29:38.002Z,27.4
2022-10-07T13:30:39.973Z,27.2
2022-10-07T13:31:41.418Z,27.2
2022-10-07T13:32:44.183Z,27.3
2022-10-07T13:33:48.279Z,27.2
2022-10-07T13:34:50.769Z,27.2
2022-10-07T13:35:53.248Z,27.2
2022-10-07T13:36:55.468Z,27.3
2022-10-07T13:37:57.426Z,27.2
2022-10-07T13:38:59.696Z,27.2
2022-10-07T13:40:01.617Z,27.2
2022-10-07T13:41:04.126Z,27.1
2022-10-07T13:42:06.049Z,27.2
2022-10-07T13:43:08.533Z,27.1
2022-10-07T13:44:10.758Z,27.2
2022-10-07T13:45:12.961Z,27.3
2022-10-07T13:46:15.246Z,27.1
2022-10-07T13:47:17.668Z,27.3
2022-10-07T13:48:20.136Z,27.1
2022-10-07T13:49:22.359Z,27.3
2022-10-07T13:50:24.833Z,27.4
2022-10-07T13:51:27.040Z,27.1
2022-10-07T13:52:29.514Z,27.1
2022-10-07T13:53:31.765Z,27.1
2022-10-07T13:54:34.269Z,27.1
2022-10-07T13:55:36.793Z,27
2022-10-07T13:56:38.727Z,27.2
2022-10-07T13:57:41.200Z,27.1
2022-10-07T13:58:42.870Z,27.1
2022-10-07T13:59:45.102Z,27.3
2022-10-07T14:00:47.029Z,27